createdAt,value
2019-01-12T11:55:51.586Z,41.80
2019-01-12T11:58:18.119Z,37.67
2019-01-12T12:00:44.957Z,38.53
2019-01-12T12:03:11.497Z,52.50
2019-01-12T12:05:37.950Z,40.87
2019-01-12T12:08:04.507Z,40.30
2019-01-12T12:10:30.975Z,39.53
2019-01-12T12:12:57.687Z,38.73
2019-01-12T12:15:24.471Z,33.60
2019-01-12T12:17:51.004Z,33.50
2019-01-12T12:20:17.542Z,32.80
2019-01-12T12:22:44.076Z,32.03
2019-01-12T12:25:10.609Z,28.57
2019-01-12T12:27:37.450Z,27.63
2019-01-12T12:30:04.293Z,28.70
2019-01-12T12:32:30.827Z,33.03
2019-01-12T12:34:57.668Z,30.13
2019-01-12T12:37:24.202Z,28.17
2019-01-12T12:39:51.045Z,29.67
2019-01-12T12:42:17.579Z,31.77
2019-01-12T12:44:44.113Z,26.20
2019-01-12T12:47:10.647Z,29.10
2019-01-12T12:49:37.182Z,29.13
2019-01-12T12:52:04.027Z,25.00
2019-01-12T12:54:30.558Z,30.97
2019-01-12T12:56:57.098Z,25.43
2019-01-12T12:59:23.745Z,24.50
2019-01-12T13:01:50.469Z,24.93
2019-01-12T13:04:17.310Z,24.40
2019-01-12T13:06:44.155Z,26.70
2019-01-12T13:09:10.994Z,23.23
2019-01-12T13:11:37.835Z,22.57
2019-01-12T13:14:04.375Z,23.53
2019-01-12T13:16:31.211Z,22.07
2019-01-12T13:18:58.052Z,25.63
2019-01-12T13:21:24.592Z,24.67
2019-01-12T13:23:51.123Z,24.00
2019-01-12T13:26:17.966Z,22.63
2019-01-12T13:28:44.808Z,21.33
2019-01-12T13:31:11.340Z,21.23
2019-01-12T13:33:37.875Z,23.07
2019-01-12T13:36:04.409Z,22.97
2019-01-12T13:38:31.253Z,18.87
2019-01-12T13:40:58.091Z,21.80
2019-01-12T13:43:24.627Z,23.50
2019-01-12T13:45:51.472Z,19.20
2019-01-12T13:48:18.004Z,18.37
2019-01-12T13:50:44.538Z,19.23
2019-01-12T13:53:11.378Z,19.63
2019-01-12T13:55:38.220Z,18.87
2019-01-12T13:58:05.068Z,17.80
2019-01-12T14:00:31.632Z,20.00
2019-01-12T14:02:58.131Z,20.60
2019-01-12T14:05:24.973Z,20.07
2019-01-12T14:07:56.162Z,20.17
2019-01-12T14:10:19.886Z,17.10
2019-01-12T14:12:46.430Z,21.47
2019-01-12T14:15:12.955Z,21.33
2019-01-12T14:17:39.574Z,19.50
2019-01-12T14:20:06.333Z,19.07
2019-01-12T14:22:33.171Z,17.77
2019-01-12T14:24:59.706Z,16.90
2019-01-12T14:27:26.550Z,18.47
2019-01-12T14:29:53.390Z,18.07
2019-01-12T14:32:19.924Z,15.73
2019-01-12T14:34:46.493Z,20.23
2019-01-12T14:37:13.314Z,18.23
2019-01-12T14:39:39.841Z,17.67
2019-01-12T14:42:06.678Z,22.27
2019-01-12T14:44:33.210Z,18.23
2019-01-12T14:47:00.052Z,19.57
2019-01-12T14:49:26.894Z,17.10
2019-01-12T14:51:53.737Z,18.73
2019-01-12T14:54:20.275Z,18.80
2019-01-12T14:56:47.112Z,20.53
2019-01-12T14:59:13.967Z,17.57
2019-01-12T15:01:40.489Z,16.67
2019-01-12T15:04:07.027Z,18.17
2019-01-12T15:06:33.557Z,18.83
2019-01-12T15:09:00.400Z,21.63
2019-01-12T15:11:27.242Z,16.33
2019-01-12T15:13:53.776Z,16.20
2019-01-12T15:16:20.617Z,18.03
2019-01-12T15:18:47.150Z,16.10
2019-01-12T15:21:13.992Z,16.57
2019-01-12T15:23:40.834Z,17.27
2019-01-12T15:26:07.368Z,17.03
2019-01-12T15:28:34.211Z,17.00
2019-01-12T15:31:01.052Z,19.87
2019-01-12T15:33:28.327Z,17.70
2019-01-12T15:35:55.042Z,17.07
2019-01-12T15:38:21.577Z,14.77
2019-01-12T15:40:48.113Z,16.77
2019-01-12T15:43:14.649Z,17.13
2019-01-12T15:45:41.487Z,18.17
2019-01-12T15:48:08.023Z,14.83
2019-01-12T15:50:34.559Z,15.67
2019-01-12T15:53:01.624Z,15.80
2019-01-12T15:55:28.547Z,15.37
2019-01-12T15:57:55.389Z,14.57
2019-01-12T16:00:22.230Z,17.13
2019-01-12T16:02:49.071Z,14.50
2019-01-12T16:05:15.607Z,17.37
2019-01-12T16:07:42.448Z,16.17
2019-01-12T16:10:08.982Z,14.73
2019-01-12T16:12:35.824Z,16.70
2019-01-12T16:15:02.666Z,16.43
2019-01-12T16:17:29.510Z,15.43
2019-01-12T16:19:56.042Z,13.30
2019-01-12T16:22:22.576Z,14.70
2019-01-12T16:24:49.111Z,18.13
2019-01-12T16:27:15.953Z,17.30
2019-01-12T16:29:42.487Z,15.97
2019-01-12T16:32:09.022Z,15.57
2019-01-12T16:34:35.558Z,14.53
2019-01-12T16:37:02.092Z,15.13
2019-01-12T16:39:28.933Z,13.57
2019-01-12T16:41:55.467Z,17.67
2019-01-12T16:44:22.308Z,12.50
2019-01-12T16:46:48.845Z,15.37
2019-01-12T16:49:15.378Z,14.47
2019-01-12T16:51:42.222Z,14.90
2019-01-12T16:54:09.062Z,11.57
2019-01-12T16:56:35.600Z,13.33
2019-01-12T16:59:02.149Z,13.53
2019-01-12T17:01:28.664Z,13.63
2019-01-12T17:03:55.200Z,15.00
2019-01-12T17:06:21.733Z,13.53
2019-01-12T17:08:48.269Z,13.67
2019-01-12T17:11:15.114Z,12.77
2019-01-12T17:13:41.643Z,13.33
2019-01-12T17:16:08.751Z,16.83
2019-01-12T17:18:35.643Z,14.17
2019-01-12T17:21:02.170Z,13.73
2019-01-12T17:23:28.707Z,12.10
2019-01-12T17:25:55.547Z,12.83
2019-01-12T17:28:22.081Z,13.63
2019-01-12T17:30:48.614Z,14.13
2019-01-12T17:33:15.456Z,14.57
2019-01-12T17:35:41.990Z,12.73
2019-01-12T17:38:08.833Z,10.67
2019-01-12T17:40:35.967Z,12.47
2019-01-12T17:43:02.531Z,13.27
2019-01-12T17:45:29.061Z,10.57
2019-01-12T17:47:55.589Z,14.47
2019-01-12T17:50:22.119Z,14.00
2019-01-12T17:52:48.966Z,14.50
2019-01-12T17:55:15.496Z,13.17
2019-01-12T17:57:42.029Z,14.63
2019-01-12T18:00:08.871Z,12.63
2019-01-12T18:02:35.406Z,11.50
2019-01-12T18:05:01.939Z,12.57
2019-01-12T18:07:28.781Z,15.40
2019-01-12T18:09:55.320Z,13.63
2019-01-12T18:12:21.852Z,13.63
2019-01-12T18:14:48.692Z,10.50
2019-01-12T18:17:15.226Z,10.67
2019-01-12T18:19:41.761Z,11.40
2019-01-12T18:22:08.603Z,12.17
2019-01-12T18:24:35.137Z,12.77
2019-01-12T18:27:01.671Z,13.47
2019-01-12T18:29:28.514Z,12.43
2019-01-12T18:31:55.051Z,12.33
2019-01-12T18:34:21.585Z,11.57
2019-01-12T18:36:48.126Z,13.27
2019-01-12T18:39:15.051Z,13.53
2019-01-12T18:41:41.802Z,13.70
2019-01-12T18:44:08.335Z,13.30
2019-01-12T18:46:35.186Z,13.97
2019-01-12T18:49:02.307Z,11.40
2019-01-12T18:51:28.881Z,12.67
2019-01-12T18:53:56.007Z,11.53
2019-01-12T18:56:22.849Z,12.37
2019-01-12T18:58:49.387Z,12.13
2019-01-12T19:01:15.919Z,14.57
2019-01-12T19:03:42.768Z,13.03
2019-01-12T19:06:09.913Z,12.10
2019-01-12T19:08:36.835Z,12.23
2019-01-12T19:11:03.597Z,13.93
2019-01-12T19:13:30.741Z,11.93
2019-01-12T19:15:57.276Z,11.50
2019-01-12T19:18:24.122Z,12.13
2019-01-12T19:20:50.961Z,12.93
2019-01-12T19:23:17.496Z,12.10
2019-01-12T19:25:44.031Z,13.80
2019-01-12T19:28:10.562Z,11.67
2019-01-12T19:30:37.097Z,14.37
2019-01-12T19:33:03.636Z,12.07
2019-01-12T19:35:30.165Z,13.60
2019-01-12T19:37:57.007Z,14.27
2019-01-12T19:40:23.541Z,11.07
2019-01-12T19:42:50.384Z,14.80
2019-01-12T19:45:16.917Z,13.30
2019-01-12T19:47:43.452Z,15.17
2019-01-12T19:50:09.988Z,14.80
2019-01-12T19:52:36.828Z,13.90
2019-01-12T19:55:03.368Z,15.83
2019-01-12T19:57:29.900Z,12.10
2019-01-12T19:59:56.431Z,12.30
2019-01-12T20:02:22.966Z,12.53
2019-01-12T20:04:49.506Z,12.47
2019-01-12T20:07:16.035Z,15.23
2019-01-12T20:09:42.882Z,13.57
2019-01-12T20:12:09.412Z,13.13
2019-01-12T20:14:35.949Z,12.40
2019-01-12T20:17:02.788Z,11.87
2019-01-12T20:19:29.322Z,13.23
2019-01-12T20:21:56.489Z,14.27
2019-01-12T20:24:23.620Z,13.13
2019-01-12T20:26:50.161Z,14.30
2019-01-12T20:29:21.074Z,12.53
2019-01-12T20:31:44.843Z,14.17
2019-01-12T20:34:11.600Z,13.93
2019-01-12T20:36:38.446Z,12.00
2019-01-12T20:39:04.976Z,12.10
2019-01-12T20:41:31.822Z,14.97
2019-01-12T20:43:58.663Z,11.23
2019-01-12T20:46:25.217Z,15.50
2019-01-12T20:48:52.038Z,14.07
2019-01-12T20:51:18.787Z,13.00
2019-01-12T20:53:45.699Z,12.37
2019-01-12T20:56:12.260Z,12.77
2019-01-12T20:58:39.096Z,13.50
2019-01-12T21:01:05.632Z,13.43
2019-01-12T21:03:32.164Z,10.17
2019-01-12T21:05:59.017Z,14.20
2019-01-12T21:08:25.849Z,11.10
2019-01-12T21:10:52.383Z,12.33
2019-01-12T21:13:18.917Z,12.37
2019-01-12T21:15:45.759Z,11.10
2019-01-12T21:18:12.295Z,10.77
2019-01-12T21:20:38.828Z,12.07
2019-01-12T21:23:05.669Z,12.00
2019-01-12T21:25:32.205Z,9.73
2019-01-12T21:27:59.044Z,13.93
2019-01-12T21:30:25.579Z,12.73
2019-01-12T21:32:52.114Z,12.73
2019-01-12T21:35:18.956Z,9.77
2019-01-12T21:37:45.490Z,11.13
2019-01-12T21:40:12.025Z,12.77
2019-01-12T21:42:38.559Z,13.70
2019-01-12T21:45:05.085Z,11.03
2019-01-12T21:47:31.628Z,10.87
2019-01-12T21:49:58.472Z,10.83
2019-01-12T21:52:25.004Z,10.17
2019-01-12T21:54:51.539Z,10.93
2019-01-12T21:57:18.073Z,9.53
2019-01-12T21:59:44.608Z,9.47
2019-01-12T22:02:11.449Z,9.33
2019-01-12T22:04:38.290Z,10.53
2019-01-12T22:07:04.824Z,12.50
2019-01-12T22:09:31.359Z,10.47
2019-01-12T22:11:57.895Z,11.00
2019-01-12T22:14:24.430Z,11.13
2019-01-12T22:16:50.965Z,11.13
2019-01-12T22:19:17.807Z,9.70
2019-01-12T22:21:44.340Z,11.20
2019-01-12T22:24:11.180Z,11.23
2019-01-12T22:26:37.714Z,9.70
2019-01-12T22:29:04.559Z,10.57
2019-01-12T22:31:31.094Z,8.73
2019-01-12T22:33:57.626Z,8.87
2019-01-12T22:36:24.160Z,8.97
2019-01-12T22:38:51.002Z,9.83
2019-01-12T22:41:17.844Z,10.17
2019-01-12T22:43:44.685Z,10.27
2019-01-12T22:46:11.531Z,9.40
2019-01-12T22:48:38.368Z,8.83
2019-01-12T22:51:05.211Z,8.27
2019-01-12T22:53:31.745Z,8.90
2019-01-12T22:55:58.279Z,10.90
2019-01-12T22:58:24.814Z,7.90
2019-01-12T23:00:51.348Z,7.87
2019-01-12T23:03:18.190Z,7.83
2019-01-12T23:05:45.033Z,7.73
2019-01-12T23:08:11.566Z,7.03
2019-01-12T23:10:38.408Z,9.27
2019-01-12T23:13:04.943Z,7.90
2019-01-12T23:15:31.784Z,7.00
2019-01-12T23:17:58.329Z,7.43
2019-01-12T23:20:24.855Z,9.73
2019-01-12T23:22:51.694Z,8.30
2019-01-12T23:25:18.207Z,7.47
2019-01-12T23:27:45.072Z,8.50
2019-01-12T23:30:11.607Z,8.27
2019-01-12T23:32:38.451Z,6.93
2019-01-12T23:35:04.982Z,9.13
2019-01-12T23:37:31.823Z,5.83
2019-01-12T23:39:58.674Z,7.37
2019-01-12T23:42:25.199Z,7.63
2019-01-12T23:44:51.712Z,6.20
2019-01-12T23:47:18.270Z,6.30
2019-01-12T23:49:45.115Z,6.67
2019-01-12T23:52:11.626Z,5.90
2019-01-12T23:54:38.179Z,5.50
2019-01-12T23:57:04.815Z,5.70
2019-01-12T23:59:31.555Z,8.20
